Time;durP1;ratioP1;P1;durP2;ratioP2;P2;SDS_P1;SDS_P2;PMS_P1;PMS_P2;Temp;Humidity;BMP_temperature;BMP_pressure;BME280_temperature;BME280_humidity;BME280_pressure;Samples;Min_cycle;Max_cycle;Signal;HPM_P1;HPM_P2
2022/11/13 00:01:43;;;;;;;;;;;;;;;8.50;100.00;100673.85;1688078;85;20156;-84
2022/11/13 00:04:29;;;;;;;;;;;;;;;8.47;100.00;100675.22;1687963;85;20144;-84
2022/11/13 00:07:14;;;;;;;;;;;;;;;8.42;100.00;100674.31;1687993;85;20211;-83
2022/11/13 00:10:01;;;;;;;;;;;;;;;8.41;100.00;100673.04;1688342;85;20188;-86
2022/11/13 00:12:46;;;;;;;;;;;;;;;8.40;100.00;100670.84;1688057;85;20713;-85
2022/11/13 00:15:31;;;;;;;;;;;;;;;8.38;100.00;100672.61;1688249;85;20199;-82
2022/11/13 00:18:15;;;;;;;;;;;;;;;8.35;100.00;100667.37;1688040;85;20192;-84
2022/11/13 00:21:08;;;;;;;;;;;;;;;8.31;100.00;100668.30;1687894;85;20244;-84
2022/11/13 00:23:54;;;;;;;;;;;;;;;8.25;100.00;100659.15;1688001;85;20247;-86
2022/11/13 00:26:39;;;;;;;;;;;;;;;8.21;100.00;100660.06;1664905;85;21892;-83
2022/11/13 00:29:24;;;;;;;;;;;;;;;8.21;100.00;100666.62;1687820;85;20263;-85
2022/11/13 00:32:09;;;;;;;;;;;;;;;8.17;100.00;100666.63;1688133;85;20144;-83
2022/11/13 00:34:54;;;;;;;;;;;;;;;8.14;100.00;100658.78;1687789;85;20226;-82
2022/11/13 00:37:39;;;;;;;;;;;;;;;8.15;100.00;100663.16;1688206;85;20211;-85
2022/11/13 00:40:24;;;;;;;;;;;;;;;8.17;100.00;100650.91;1689062;85;21286;-84
2022/11/13 00:43:09;;;;;;;;;;;;;;;8.19;100.00;100664.01;1687872;85;20148;-84
2022/11/13 00:45:54;;;;;;;;;;;;;;;8.18;100.00;100660.49;1688266;85;20493;-83
2022/11/13 00:48:38;;;;;;;;;;;;;;;8.15;100.00;100648.73;1688266;85;20455;-83
2022/11/13 00:51:24;;;;;;;;;;;;;;;8.14;100.00;100650.06;1688176;85;20658;-83
2022/11/13 00:54:08;;;;;;;;;;;;;;;8.11;100.00;100647.00;1687900;85;21098;-83
2022/11/13 00:56:53;;;;;;;;;;;;;;;8.09;100.00;100643.98;1687878;85;20207;-82
2022/11/13 00:59:38;;;;;;;;;;;;;;;8.08;100.00;100640.91;1688262;85;20192;-82
2022/11/13 01:02:23;;;;;;;;;;;;;;;8.06;100.00;100646.16;1687911;85;20214;-82
2022/11/13 01:05:08;;;;;;;;;;;;;;;8.04;100.00;100638.75;1688254;85;20448;-87
2022/11/13 01:07:53;;;;;;;;;;;;;;;8.00;100.00;100635.70;1688011;85;22258;-83
2022/11/13 01:10:41;;;;;;;;;;;;;;;8.00;100.00;100631.77;1688337;85;20224;-85
2022/11/13 01:13:25;;;;;;;;;;;;;;;7.99;100.00;100642.70;1687691;85;20259;-87
2022/11/13 01:16:11;;;;;;;;;;;;;;;7.99;100.00;100635.30;1688025;85;20239;-86
2022/11/13 01:18:57;;;;;;;;;;;;;;;7.99;100.00;100636.16;1687973;85;20168;-84
2022/11/13 01:21:42;;;;;;;;;;;;;;;7.99;100.00;100630.91;1687955;85;21109;-85
2022/11/13 01:24:27;;;;;;;;;;;;;;;8.00;100.00;100633.08;1687782;85;20256;-83
2022/11/13 01:27:12;;;;;;;;;;;;;;;8.03;100.00;100631.76;1688255;85;20212;-84
2022/11/13 01:29:57;;;;;;;;;;;;;;;8.04;100.00;100626.96;1687771;85;20223;-83
2022/11/13 01:32:43;;;;;;;;;;;;;;;8.09;100.00;100630.42;1687929;85;20226;-85
2022/11/13 01:35:28;;;;;;;;;;;;;;;8.12;100.00;100631.72;1687946;85;21158;-82
2022/11/13 01:38:13;;;;;;;;;;;;;;;8.12;100.00;100634.34;1687801;85;20235;-83
2022/11/13 01:40:58;;;;;;;;;;;;;;;8.12;100.00;100631.72;1688099;84;20243;-82
2022/11/13 01:43:44;;;;;;;;;;;;;;;8.13;100.00;100622.95;1687855;85;20169;-85
2022/11/13 01:46:32;;;;;;;;;;;;;;;8.14;100.00;100626.47;1688064;85;20231;-87
2022/11/13 01:49:31;;;;;;;;;;;;;;;8.11;100.00;100615.55;1687779;85;20501;-83
2022/11/13 01:52:23;;;;;;;;;;;;;;;8.10;100.00;100609.89;1687953;85;20154;-84
2022/11/13 01:55:10;;;;;;;;;;;;;;;8.08;100.00;100612.08;1687961;85;20346;-83
2022/11/13 01:57:57;;;;;;;;;;;;;;;8.07;100.00;100616.46;1689989;81;20203;-79
2022/11/13 02:00:43;;;;;;;;;;;;;;;8.04;100.00;100615.16;1692053;81;20151;-79
2022/11/13 02:03:28;;;;;;;;;;;;;;;8.02;100.00;100609.07;1691700;84;21531;-80
2022/11/13 02:06:12;;;;;;;;;;;;;;;8.02;100.00;100613.42;1689134;85;20660;-80
2022/11/13 02:08:57;;;;;;;;;;;;;;;8.01;100.00;100607.31;1688907;85;20207;-82
2022/11/13 02:11:42;;;;;;;;;;;;;;;8.00;100.00;100606.45;1688015;85;20219;-84
2022/11/13 02:14:28;;;;;;;;;;;;;;;8.01;100.00;100612.56;1687958;85;20505;-87
2022/11/13 02:17:22;;;;;;;;;;;;;;;8.00;100.00;100606.87;1687861;85;21932;-83
2022/11/13 02:20:08;;;;;;;;;;;;;;;8.01;100.00;100608.62;1687894;85;20227;-82
2022/11/13 02:23:05;;;;;;;;;;;;;;;8.02;100.00;100605.56;1688622;84;20215;-83
2022/11/13 02:25:51;;;;;;;;;;;;;;;8.02;100.00;100614.31;1693884;84;20745;-86
2022/11/13 02:28:37;;;;;;;;;;;;;;;8.05;100.00;100605.09;1693944;84;20206;-85
2022/11/13 02:31:22;;;;;;;;;;;;;;;8.09;100.00;100613.38;1693458;84;21549;-86
2022/11/13 02:34:07;;;;;;;;;;;;;;;8.09;100.00;100616.00;1693840;84;20195;-86
2022/11/13 02:36:52;;;;;;;;;;;;;;;8.10;100.00;100620.37;1693632;84;20159;-83
2022/11/13 02:39:38;;;;;;;;;;;;;;;8.08;100.00;100614.25;1693711;84;20226;-84
2022/11/13 02:42:23;;;;;;;;;;;;;;;8.07;100.00;100615.15;1693558;84;20357;-81
2022/11/13 02:45:09;;;;;;;;;;;;;;;8.07;100.00;100617.77;1693589;84;22365;-81
2022/11/13 02:47:54;;;;;;;;;;;;;;;8.05;100.00;100612.09;1693712;84;20203;-82
2022/11/13 02:50:40;;;;;;;;;;;;;;;8.05;100.00;100614.27;1693557;84;20223;-84
2022/11/13 02:53:25;;;;;;;;;;;;;;;8.05;100.00;100610.33;1693693;84;20231;-85
2022/11/13 02:56:10;;;;;;;;;;;;;;;8.06;100.00;100618.64;1693877;84;20509;-86
2022/11/13 02:58:55;;;;;;;;;;;;;;;8.08;100.00;100623.87;1693884;84;21165;-84
2022/11/13 03:01:40;;;;;;;;;;;;;;;8.07;100.00;100625.63;1693568;84;20350;-85
2022/11/13 03:04:24;;;;;;;;;;;;;;;8.08;100.00;100629.12;1693669;84;20209;-82
2022/11/13 03:07:09;;;;;;;;;;;;;;;8.07;100.00;100629.56;1693564;84;20202;-87
2022/11/13 03:09:56;;;;;;;;;;;;;;;8.09;100.00;100629.11;1693512;84;20210;-84
2022/11/13 03:12:40;;;;;;;;;;;;;;;8.08;100.00;100635.22;1693977;84;21477;-85
2022/11/13 03:15:25;;;;;;;;;;;;;;;8.10;100.00;100636.11;1693596;84;20210;-86
2022/11/13 03:18:10;;;;;;;;;;;;;;;8.11;100.00;100641.76;1693877;84;20221;-83
2022/11/13 03:20:55;;;;;;;;;;;;;;;8.08;100.00;100633.05;1693685;84;20306;-83
2022/11/13 03:23:41;;;;;;;;;;;;;;;8.06;100.00;100627.81;1693609;84;20305;-81
2022/11/13 03:26:27;;;;;;;;;;;;;;;8.07;100.00;100626.05;1693551;84;21306;-82
2022/11/13 03:29:12;;;;;;;;;;;;;;;8.08;100.00;100628.66;1693666;84;20656;-81
2022/11/13 03:31:58;;;;;;;;;;;;;;;8.09;100.00;100622.55;1693500;84;20237;-82
2022/11/13 03:34:43;;;;;;;;;;;;;;;8.07;100.00;100629.56;1694226;84;20449;-83
2022/11/13 03:37:28;;;;;;;;;;;;;;;8.09;100.00;100623.00;1693987;84;20210;-84
2022/11/13 03:40:13;;;;;;;;;;;;;;;8.13;100.00;100632.12;1694039;84;21234;-81
2022/11/13 03:42:58;;;;;;;;;;;;;;;8.15;100.00;100629.08;1687037;84;20493;-83
2022/11/13 03:45:45;;;;;;;;;;;;;;;8.14;100.00;100627.33;1685246;85;20271;-83
2022/11/13 03:48:29;;;;;;;;;;;;;;;8.14;100.00;100619.91;1685293;84;20235;-85
2022/11/13 03:51:15;;;;;;;;;;;;;;;8.14;100.00;100635.64;1685137;85;20176;-85
2022/11/13 03:54:00;;;;;;;;;;;;;;;8.12;100.00;100629.09;1685106;84;21161;-86
2022/11/13 03:56:45;;;;;;;;;;;;;;;8.13;100.00;100633.44;1685022;85;20367;-83
2022/11/13 03:59:29;;;;;;;;;;;;;;;8.14;100.00;100624.70;1685266;84;21094;-86
2022/11/13 04:02:15;;;;;;;;;;;;;;;8.14;100.00;100629.95;1685208;84;20518;-82
2022/11/13 04:05:00;;;;;;;;;;;;;;;8.13;100.00;100636.51;1685229;85;20213;-82
2022/11/13 04:07:45;;;;;;;;;;;;;;;8.12;100.00;100643.93;1685164;84;21113;-81
2022/11/13 04:10:30;;;;;;;;;;;;;;;8.11;100.00;100637.83;1685090;85;20227;-83
2022/11/13 04:13:15;;;;;;;;;;;;;;;8.16;100.00;100645.67;1685330;85;20269;-83
2022/11/13 04:16:00;;;;;;;;;;;;;;;8.18;100.00;100638.20;1685022;84;20199;-83
2022/11/13 04:18:46;;;;;;;;;;;;;;;8.19;100.00;100637.79;1685201;84;20144;-84
2022/11/13 04:21:32;;;;;;;;;;;;;;;8.18;100.00;100631.66;1685257;85;21155;-84
2022/11/13 04:24:16;;;;;;;;;;;;;;;8.18;100.00;100634.27;1685281;85;20210;-88
2022/11/13 04:27:01;;;;;;;;;;;;;;;8.14;100.00;100627.77;1685225;85;20235;-83
2022/11/13 04:29:46;;;;;;;;;;;;;;;8.11;100.00;100632.58;1685575;85;20227;-86
2022/11/13 04:32:31;;;;;;;;;;;;;;;8.07;100.00;100636.13;1685358;85;20214;-84
2022/11/13 04:35:16;;;;;;;;;;;;;;;8.06;100.00;100636.98;1685186;85;21114;-84
2022/11/13 04:38:01;;;;;;;;;;;;;;;8.07;100.00;100636.13;1685064;85;20195;-89
2022/11/13 04:40:49;;;;;;;;;;;;;;;8.06;100.00;100638.75;1685254;84;20459;-86
2022/11/13 04:43:34;;;;;;;;;;;;;;;8.08;100.00;100636.53;1692724;84;20206;-84
2022/11/13 04:46:19;;;;;;;;;;;;;;;8.09;100.00;100643.98;1693783;84;20206;-83
2022/11/13 04:49:04;;;;;;;;;;;;;;;8.10;100.00;100645.28;1693671;84;21812;-84
2022/11/13 04:51:49;;;;;;;;;;;;;;;8.10;100.00;100643.97;1693812;84;20431;-82
2022/11/13 04:54:33;;;;;;;;;;;;;;;8.10;100.00;100646.59;1693688;84;20234;-83
2022/11/13 04:57:18;;;;;;;;;;;;;;;8.07;100.00;100641.36;1693908;84;20580;-82
2022/11/13 05:00:04;;;;;;;;;;;;;;;8.07;100.00;100645.30;1692965;84;20241;-86
2022/11/13 05:02:49;;;;;;;;;;;;;;;8.06;100.00;100645.30;1694131;84;21128;-88
2022/11/13 05:05:35;;;;;;;;;;;;;;;8.06;100.00;100652.72;1693740;84;20185;-81
2022/11/13 05:08:19;;;;;;;;;;;;;;;8.10;100.00;100659.70;1693950;84;20210;-82
2022/11/13 05:11:05;;;;;;;;;;;;;;;8.11;100.00;100660.11;1693666;84;20206;-87
2022/11/13 05:13:49;;;;;;;;;;;;;;;8.15;100.00;100669.71;1693938;84;20505;-88
2022/11/13 05:16:35;;;;;;;;;;;;;;;8.19;100.00;100666.63;1693565;84;21153;-89
2022/11/13 05:19:19;;;;;;;;;;;;;;;8.22;100.00;100661.78;1693733;84;20234;-82
2022/11/13 05:22:05;;;;;;;;;;;;;;;8.23;100.00;100663.54;1693569;84;20226;-84
2022/11/13 05:24:49;;;;;;;;;;;;;;;8.24;100.00;100670.50;1694040;84;20163;-83
2022/11/13 05:27:34;;;;;;;;;;;;;;;8.25;100.00;100670.95;1693953;84;20168;-84
2022/11/13 05:30:19;;;;;;;;;;;;;;;8.28;100.00;100669.17;1693676;84;21104;-80
2022/11/13 05:33:03;;;;;;;;;;;;;;;8.30;100.00;100666.55;1693683;84;20222;-84
2022/11/13 05:35:48;;;;;;;;;;;;;;;8.32;100.00;100673.53;1693819;84;20233;-82
2022/11/13 05:38:34;;;;;;;;;;;;;;;8.33;100.00;100666.53;1693638;84;20510;-84
2022/11/13 05:41:19;;;;;;;;;;;;;;;8.33;100.00;100670.46;1693984;84;20191;-85
2022/11/13 05:44:04;;;;;;;;;;;;;;;8.35;100.00;100671.31;1685673;84;21190;-85
2022/11/13 05:46:50;;;;;;;;;;;;;;;8.35;100.00;100672.62;1685324;85;20200;-83
2022/11/13 05:49:35;;;;;;;;;;;;;;;8.37;100.00;100670.86;1685330;85;20234;-82
2022/11/13 05:52:19;;;;;;;;;;;;;;;8.39;100.00;100676.98;1685181;84;20230;-85
2022/11/13 05:55:05;;;;;;;;;;;;;;;8.35;100.00;100675.25;1685416;84;20552;-81
2022/11/13 05:57:50;;;;;;;;;;;;;;;8.34;100.00;100681.39;1685352;85;21778;-85
2022/11/13 06:00:35;;;;;;;;;;;;;;;8.30;100.00;100678.34;1685276;85;20227;-84
2022/11/13 06:03:19;;;;;;;;;;;;;;;8.33;100.00;100683.57;1685547;85;20234;-85
2022/11/13 06:06:06;;;;;;;;;;;;;;;8.34;100.00;100686.64;1685086;85;20203;-85
2022/11/13 06:08:53;;;;;;;;;;;;;;;8.36;100.00;100684.87;1685142;85;20214;-84
2022/11/13 06:11:39;;;;;;;;;;;;;;;8.36;100.00;100684.87;1684967;84;21984;-87
2022/11/13 06:14:26;;;;;;;;;;;;;;;8.35;100.00;100680.49;1685483;85;20255;-82
2022/11/13 06:17:10;;;;;;;;;;;;;;;8.36;100.00;100686.18;1685189;85;20179;-83
2022/11/13 06:19:57;;;;;;;;;;;;;;;8.37;100.00;100691.83;1685072;84;20176;-83
2022/11/13 06:22:41;;;;;;;;;;;;;;;8.37;100.00;100690.52;1685188;85;20214;-84
2022/11/13 06:25:26;;;;;;;;;;;;;;;8.37;100.00;100690.11;1685402;84;21056;-81
2022/11/13 06:28:11;;;;;;;;;;;;;;;8.38;100.00;100690.97;1684975;85;20206;-85
2022/11/13 06:31:08;;;;;;;;;;;;;;;8.39;100.00;100692.72;1686126;84;20236;-87
2022/11/13 06:33:52;;;;;;;;;;;;;;;8.38;100.00;100698.38;1685492;84;20222;-84
2022/11/13 06:36:39;;;;;;;;;;;;;;;8.40;100.00;100702.76;1685330;84;20144;-85
2022/11/13 06:39:23;;;;;;;;;;;;;;;8.45;100.00;100694.00;1685379;85;21140;-84
2022/11/13 06:42:08;;;;;;;;;;;;;;;8.48;100.00;100690.05;1685098;85;20202;-86
2022/11/13 06:44:52;;;;;;;;;;;;;;;8.52;100.00;100694.41;1685131;85;20182;-82
2022/11/13 06:47:37;;;;;;;;;;;;;;;8.54;100.00;100693.95;1685451;85;20879;-83
2022/11/13 06:50:22;;;;;;;;;;;;;;;8.55;100.00;100691.73;1685349;85;20210;-82
2022/11/13 06:53:07;;;;;;;;;;;;;;;8.59;100.00;100691.30;1685553;84;21139;-86
2022/11/13 06:55:51;;;;;;;;;;;;;;;8.61;100.00;100689.95;1687100;84;20226;-79
2022/11/13 06:58:36;;;;;;;;;;;;;;;8.60;100.00;100693.47;1689202;83;20224;-85
2022/11/13 07:01:22;;;;;;;;;;;;;;;8.60;100.00;100689.09;1689309;82;20163;-84
2022/11/13 07:04:10;;;;;;;;;;;;;;;8.61;100.00;100682.08;1685296;84;20190;-87
2022/11/13 07:06:55;;;;;;;;;;;;;;;8.63;100.00;100679.89;1685474;85;21140;-90
2022/11/13 07:09:40;;;;;;;;;;;;;;;8.67;100.00;100689.91;1685249;85;20254;-87
2022/11/13 07:12:27;;;;;;;;;;;;;;;8.71;100.00;100690.33;1685126;85;20199;-90
2022/11/13 07:15:15;;;;;;;;;;;;;;;8.73;100.00;100684.63;1685034;85;20493;-88
2022/11/13 07:18:01;;;;;;;;;;;;;;;8.76;100.00;100685.92;1685182;85;20458;-87
2022/11/13 07:20:45;;;;;;;;;;;;;;;8.77;100.00;100687.64;1685325;84;21127;-85
2022/11/13 07:23:32;;;;;;;;;;;;;;;8.80;100.00;100692.86;1685198;84;20805;-85
2022/11/13 07:26:16;;;;;;;;;;;;;;;8.84;100.00;100681.48;1685122;84;20506;-84
2022/11/13 07:29:02;;;;;;;;;;;;;;;8.86;100.00;100687.58;1685452;85;20179;-83
2022/11/13 07:31:46;;;;;;;;;;;;;;;8.87;100.00;100681.88;1685493;85;20239;-82
2022/11/13 07:34:32;;;;;;;;;;;;;;;8.88;100.00;100679.23;1685175;85;21248;-85
2022/11/13 07:37:17;;;;;;;;;;;;;;;8.86;100.00;100673.14;1685213;85;20207;-83
2022/11/13 07:40:03;;;;;;;;;;;;;;;8.88;100.00;100675.75;1684993;85;20175;-84
2022/11/13 07:42:57;;;;;;;;;;;;;;;8.88;100.00;100671.36;1686217;84;20211;-83
2022/11/13 07:45:42;;;;;;;;;;;;;;;8.89;100.00;100676.16;1693762;84;20763;-85
2022/11/13 07:48:28;;;;;;;;;;;;;;;8.88;100.00;100675.75;1693947;84;21042;-83
2022/11/13 07:51:13;;;;;;;;;;;;;;;8.88;100.00;100676.61;1693653;84;20222;-83
2022/11/13 07:53:58;;;;;;;;;;;;;;;8.92;100.00;100674.83;1693249;84;20521;-87
2022/11/13 07:56:46;;;;;;;;;;;;;;;8.95;100.00;100682.67;1693754;84;20291;-84
2022/11/13 07:59:30;;;;;;;;;;;;;;;8.95;100.00;100676.57;1694226;84;20171;-85
2022/11/13 08:02:15;;;;;;;;;;;;;;;8.92;100.00;100674.37;1693629;84;21223;-83
2022/11/13 08:05:00;;;;;;;;;;;;;;;8.93;100.00;100674.81;1693632;84;20202;-80
2022/11/13 08:07:47;;;;;;;;;;;;;;;8.96;100.00;100687.47;1693838;84;20370;-81
2022/11/13 08:10:32;;;;;;;;;;;;;;;8.98;100.00;100684.39;1693976;84;20253;-83
2022/11/13 08:13:18;;;;;;;;;;;;;;;9.02;100.00;100691.37;1693690;84;20211;-82
2022/11/13 08:16:03;;;;;;;;;;;;;;;9.04;100.00;100688.28;1693684;84;21175;-82
2022/11/13 08:18:48;;;;;;;;;;;;;;;9.06;100.00;100688.70;1693728;84;20235;-82
2022/11/13 08:21:34;;;;;;;;;;;;;;;9.05;100.00;100694.83;1693712;84;20206;-86
2022/11/13 08:24:18;;;;;;;;;;;;;;;9.05;100.00;100693.97;1693609;84;20206;-84
2022/11/13 08:27:05;;;;;;;;;;;;;;;9.06;100.00;100697.00;1694268;84;20222;-87
2022/11/13 08:29:50;;;;;;;;;;;;;;;9.10;100.00;100694.80;1693706;84;21180;-82
2022/11/13 08:32:35;;;;;;;;;;;;;;;9.13;100.00;100693.88;1693824;84;20243;-87
2022/11/13 08:35:20;;;;;;;;;;;;;;;9.13;100.00;100692.14;1693735;84;20225;-84
2022/11/13 08:38:07;;;;;;;;;;;;;;;9.17;100.00;100695.16;1692466;84;20136;-85
2022/11/13 08:40:53;;;;;;;;;;;;;;;9.22;100.00;100686.78;1687989;85;20589;-84
2022/11/13 08:43:38;;;;;;;;;;;;;;;9.27;100.00;100682.35;1688061;84;21232;-82
2022/11/13 08:46:23;;;;;;;;;;;;;;;9.32;100.00;100681.45;1687994;85;20909;-84
2022/11/13 08:49:08;;;;;;;;;;;;;;;9.35;100.00;100686.67;1688208;85;20188;-82
2022/11/13 08:51:52;;;;;;;;;;;;;;;9.39;100.00;100681.80;1687786;85;20187;-83
2022/11/13 08:54:38;;;;;;;;;;;;;;;9.38;100.00;100676.11;1688034;85;20247;-83
2022/11/13 08:57:23;;;;;;;;;;;;;;;9.37;100.00;100671.31;1687984;85;21274;-82
2022/11/13 09:00:09;;;;;;;;;;;;;;;9.40;100.00;100669.11;1688178;85;20506;-84
2022/11/13 09:02:55;;;;;;;;;;;;;;;9.44;100.00;100661.15;1687829;85;20183;-86
2022/11/13 09:05:40;;;;;;;;;;;;;;;9.50;100.00;100656.29;1688030;85;20199;-85
2022/11/13 09:08:25;;;;;;;;;;;;;;;9.57;100.00;100656.63;1687934;85;20207;-83
2022/11/13 09:11:10;;;;;;;;;;;;;;;9.66;100.00;100659.12;1687950;85;21536;-86
2022/11/13 09:13:55;;;;;;;;;;;;;;;9.78;100.00;100655.92;1687873;85;20218;-87
2022/11/13 09:16:39;;;;;;;;;;;;;;;9.84;100.00;100654.55;1688247;85;20242;-85
2022/11/13 09:19:24;;;;;;;;;;;;;;;9.91;100.00;100656.19;1687830;85;20259;-86
2022/11/13 09:22:10;;;;;;;;;;;;;;;9.96;100.00;100651.73;1687802;85;20579;-87
2022/11/13 09:24:55;;;;;;;;;;;;;;;10.01;99.79;100649.91;1688193;85;21281;-84
2022/11/13 09:27:41;;;;;;;;;;;;;;;10.04;99.24;100644.61;1688196;85;20231;-83
2022/11/13 09:30:27;;;;;;;;;;;;;;;10.04;97.85;100644.61;1688039;85;20211;-79
2022/11/13 09:33:15;;;;;;;;;;;;;;;10.03;97.83;100645.49;1688101;85;20227;-81
2022/11/13 09:36:01;;;;;;;;;;;;;;;10.08;98.09;100636.69;1687974;85;20235;-81
2022/11/13 09:38:46;;;;;;;;;;;;;;;10.13;97.34;100636.17;1688200;85;21241;-82
2022/11/13 09:41:38;;;;;;;;;;;;;;;10.15;96.74;100635.70;1678691;79;20270;-83
2022/11/13 09:44:32;;;;;;;;;;;;;;;10.17;96.86;100639.16;1669668;86;20210;-88
2022/11/13 09:47:24;;;;;;;;;;;;;;;10.21;96.71;100631.22;1669580;86;20512;-88
2022/11/13 09:50:21;;;;;;;;;;;;;;;10.25;96.69;100630.72;1669729;86;20231;-83
2022/11/13 09:53:06;;;;;;;;;;;;;;;10.28;96.32;100621.47;1669753;85;22190;-84
2022/11/13 09:55:58;;;;;;;;;;;;;;;10.34;96.34;100620.52;1669562;85;20222;-80
2022/11/13 09:58:53;;;;;;;;;;;;;;;10.42;95.97;100629.16;1669415;86;20226;-83
2022/11/13 10:01:41;;;;;;;;;;;;;;;10.46;95.43;100624.30;1669800;86;20257;-85
2022/11/13 10:04:35;;;;;;;;;;;;;;;10.51;95.42;100618.96;1669818;86;20637;-81
2022/11/13 10:07:54;;;;;;;;;;;;;;;10.56;95.08;100628.97;1669417;85;21509;-83
2022/11/13 10:10:43;;;;;;;;;;;;;;;10.58;93.98;100627.17;1669517;86;20214;-84
2022/11/13 10:13:35;;;;;;;;;;;;;;;10.56;93.62;100629.82;1670141;86;21041;-84
2022/11/13 10:16:40;;;;;;;;;;;;;;;10.55;92.65;100627.21;1669530;86;20213;-81
2022/11/13 10:19:34;;;;;;;;;;;;;;;10.51;92.77;100627.72;1669414;86;20158;-87
2022/11/13 10:22:41;;;;;;;;;;;;;;;10.53;92.64;100621.11;1669508;86;21255;-85
2022/11/13 10:25:30;;;;;;;;;;;;;;;10.56;92.52;100624.56;1669476;86;20207;-86
2022/11/13 10:28:22;;;;;;;;;;;;;;;10.63;92.53;100624.47;1644472;86;20262;-83
2022/11/13 10:31:10;;;;;;;;;;;;;;;10.68;92.23;100619.53;1669602;86;20529;-86
2022/11/13 10:33:56;;;;;;;;;;;;;;;10.80;92.31;100615.81;1669832;86;20207;-83
2022/11/13 10:37:09;;;;;;;;;;;;;;;10.96;92.05;100621.66;1669924;85;20814;-84
2022/11/13 10:39:56;;;;;;;;;;;;;;;11.06;90.21;100624.56;1663148;84;20127;-83
2022/11/13 10:42:41;;;;;;;;;;;;;;;11.16;89.54;100617.33;1678589;85;20238;-85
2022/11/13 10:45:26;;;;;;;;;;;;;;;11.28;89.07;100616.22;1678816;85;20184;-81
2022/11/13 10:48:20;;;;;;;;;;;;;;;11.46;88.83;100615.84;1678405;85;20262;-84
2022/11/13 10:51:18;;;;;;;;;;;;;;;11.66;86.14;100618.53;1678550;85;21249;-83
2022/11/13 10:54:24;;;;;;;;;;;;;;;11.77;85.56;100619.17;1657733;85;20217;-82
2022/11/13 10:57:32;;;;;;;;;;;;;;;11.96;85.04;100618.80;1678374;85;20576;-80
2022/11/13 11:00:23;;;;;;;;;;;;;;;12.18;82.80;100610.78;1678436;85;20235;-79
2022/11/13 11:03:14;;;;;;;;;;;;;;;12.48;81.83;100611.41;1678496;85;20192;-80
2022/11/13 11:06:01;;;;;;;;;;;;;;;12.61;81.15;100608.88;1678610;85;21109;-82
2022/11/13 11:08:46;;;;;;;;;;;;;;;12.71;80.55;100609.48;1678541;85;20211;-82
2022/11/13 11:14:40;;;;;;;;;;;;;;;12.86;78.03;100598.55;1678294;85;20876;-82
2022/11/13 11:17:53;;;;;;;;;;;;;;;12.82;77.00;100599.52;1678856;85;20144;-83
2022/11/13 11:20:47;;;;;;;;;;;;;;;12.85;76.90;100590.66;1678471;85;21155;-85
2022/11/13 11:23:46;;;;;;;;;;;;;;;13.29;76.79;100583.27;1678524;85;20231;-87
2022/11/13 11:26:44;;;;;;;;;;;;;;;13.62;74.64;100585.41;1678375;85;20243;-84
2022/11/13 11:29:40;;;;;;;;;;;;;;;13.79;72.27;100580.08;1667831;85;21177;-84
2022/11/13 11:32:35;;;;;;;;;;;;;;;13.81;72.05;100586.17;1678447;85;20227;-85
2022/11/13 11:35:21;;;;;;;;;;;;;;;13.62;72.39;100586.73;1678410;85;21186;-82
2022/11/13 11:38:10;;;;;;;;;;;;;;;13.38;73.18;100585.66;1678427;85;20317;-85
2022/11/13 11:40:58;;;;;;;;;;;;;;;13.26;73.44;100584.20;1681454;85;20644;-85
2022/11/13 11:43:47;;;;;;;;;;;;;;;13.35;72.71;100570.78;1686011;85;20551;-83
2022/11/13 11:46:33;;;;;;;;;;;;;;;13.85;71.37;100569.28;1686204;84;20226;-86
2022/11/13 11:49:19;;;;;;;;;;;;;;;14.17;69.98;100560.77;1643839;85;22034;-80
2022/11/13 11:52:26;;;;;;;;;;;;;;;14.20;70.01;100564.64;1686409;84;20193;-86
2022/11/13 11:55:32;;;;;;;;;;;;;;;14.32;69.98;100558.94;1688616;84;20247;-82
2022/11/13 11:58:27;;;;;;;;;;;;;;;14.40;68.01;100563.52;1689407;85;20175;-83
2022/11/13 12:01:29;;;;;;;;;;;;;;;14.16;68.13;100567.00;1688896;84;20207;-86
2022/11/13 12:04:17;;;;;;;;;;;;;;;13.98;68.62;100561.37;1685997;85;21874;-82
2022/11/13 12:07:36;;;;;;;;;;;;;;;13.79;69.18;100568.17;1686160;84;20136;-84
2022/11/13 12:10:25;;;;;;;;;;;;;;;13.47;69.33;100563.41;1686304;85;20219;-82
2022/11/13 12:13:26;;;;;;;;;;;;;;;13.12;71.08;100560.83;1686216;85;20207;-85
2022/11/13 12:16:26;;;;;;;;;;;;;;;13.08;71.54;100567.13;1686096;85;20199;-84
2022/11/13 12:19:17;;;;;;;;;;;;;;;13.40;71.77;100553.90;1686177;85;21165;-84
2022/11/13 12:22:15;;;;;;;;;;;;;;;13.70;70.17;100562.25;1656817;85;20140;-83
2022/11/13 12:25:30;;;;;;;;;;;;;;;13.97;69.84;100566.27;1686174;85;20258;-83
2022/11/13 12:28:25;;;;;;;;;;;;;;;13.97;68.49;100565.38;1686062;85;20444;-84
2022/11/13 12:31:17;;;;;;;;;;;;;;;13.86;69.13;100577.64;1675392;85;20215;-85
2022/11/13 12:34:06;;;;;;;;;;;;;;;13.92;68.67;100568.20;1686202;85;21720;-83
2022/11/13 12:36:52;;;;;;;;;;;;;;;13.80;68.44;100565.48;1672299;85;20223;-83
2022/11/13 12:39:59;;;;;;;;;;;;;;;13.50;69.27;100563.28;1686161;84;20144;-84
2022/11/13 12:42:52;;;;;;;;;;;;;;;13.30;70.10;100561.23;1678385;84;20200;-85
2022/11/13 12:45:40;;;;;;;;;;;;;;;13.44;70.59;100557.73;1678836;85;20254;-83
2022/11/13 12:48:34;;;;;;;;;;;;;;;13.70;69.73;100555.64;1678568;85;21166;-83
2022/11/13 12:51:19;;;;;;;;;;;;;;;14.38;68.60;100554.77;1678558;85;20179;-86
2022/11/13 12:54:04;;;;;;;;;;;;;;;15.29;65.54;100568.81;1678775;85;20223;-85
2022/11/13 12:56:50;;;;;;;;;;;;;;;16.08;61.88;100560.49;1678307;85;20203;-83
2022/11/13 12:59:36;;;;;;;;;;;;;;;16.71;59.25;100553.40;1678596;85;20283;-86
2022/11/13 13:02:40;;;;;;;;;;;;;;;17.10;57.09;100555.72;1678857;85;21154;-83
2022/11/13 13:05:41;;;;;;;;;;;;;;;17.53;56.65;100551.55;1678876;85;21202;-85
2022/11/13 13:08:45;;;;;;;;;;;;;;;18.16;54.34;100549.41;1678410;85;20520;-82
2022/11/13 13:11:58;;;;;;;;;;;;;;;18.46;51.43;100551.47;1678628;85;20492;-84
2022/11/13 13:15:10;;;;;;;;;;;;;;;17.90;50.92;100545.82;1678594;85;20183;-84
2022/11/13 13:18:13;;;;;;;;;;;;;;;16.89;53.37;100555.75;1678761;85;21171;-85
2022/11/13 13:21:10;;;;;;;;;;;;;;;16.12;55.33;100556.77;1678524;85;20255;-84
2022/11/13 13:23:55;;;;;;;;;;;;;;;15.42;57.70;100568.75;1678703;85;20509;-87
2022/11/13 13:26:45;;;;;;;;;;;;;;;15.10;59.66;100567.30;1642846;85;20580;-82
2022/11/13 13:29:32;;;;;;;;;;;;;;;14.96;59.95;100558.98;1678654;85;20700;-83
2022/11/13 13:32:23;;;;;;;;;;;;;;;14.63;60.88;100557.95;1678516;85;21268;-82
2022/11/13 13:35:15;;;;;;;;;;;;;;;14.28;62.32;100561.29;1674967;84;20700;-81
2022/11/13 13:38:28;;;;;;;;;;;;;;;14.37;62.72;100546.88;1678878;85;20534;-88
2022/11/13 13:41:33;;;;;;;;;;;;;;;14.44;62.50;100547.95;1680123;85;20239;-81
2022/11/13 13:44:34;;;;;;;;;;;;;;;14.00;63.57;100547.62;1686217;85;20275;-84
2022/11/13 13:47:25;;;;;;;;;;;;;;;13.34;65.79;100549.20;1686237;85;21145;-85
2022/11/13 13:50:19;;;;;;;;;;;;;;;12.89;67.79;100547.39;1686781;85;20215;-86
2022/11/13 13:53:04;;;;;;;;;;;;;;;12.59;69.27;100545.55;1686382;84;20943;-81
2022/11/13 13:55:52;;;;;;;;;;;;;;;12.24;70.78;100544.69;1686261;84;20513;-82
2022/11/13 13:58:37;;;;;;;;;;;;;;;12.03;71.98;100549.16;1686534;85;20510;-83
2022/11/13 14:01:30;;;;;;;;;;;;;;;11.79;72.88;100548.80;1686743;85;21788;-81
2022/11/13 14:04:20;;;;;;;;;;;;;;;11.57;74.30;100550.20;1686381;85;20224;-80
2022/11/13 14:07:07;;;;;;;;;;;;;;;11.33;75.46;100555.08;1686421;85;20171;-85
2022/11/13 14:10:06;;;;;;;;;;;;;;;11.10;76.60;100559.52;1686458;85;20206;-83
2022/11/13 14:12:51;;;;;;;;;;;;;;;10.93;78.06;100551.95;1686241;85;20210;-88
2022/11/13 14:15:37;;;;;;;;;;;;;;;10.76;78.88;100556.23;1686473;85;21129;-85
2022/11/13 14:18:22;;;;;;;;;;;;;;;10.59;79.77;100552.56;1686147;84;20944;-85
2022/11/13 14:21:15;;;;;;;;;;;;;;;10.45;80.75;100555.45;1686655;85;20619;-84
2022/11/13 14:24:01;;;;;;;;;;;;;;;10.32;81.37;100561.39;1686008;84;20218;-82
2022/11/13 14:26:49;;;;;;;;;;;;;;;10.24;81.94;100555.35;1686347;84;20897;-82